This is the latest recevied weather packets stored in our database for station/object GW1601. If no packets are shown the sender has not sent any weather packets the latest 10 day(s).
| Time | Temp. | Humidity | Pressure | Rain* | Wind** | Luminosity | Snow |
|---|---|---|---|---|---|---|---|
| 1777913498 | 22.22° C | 57% | 984.4 hPa | 0 mm | - | - | - |
| 1777911690 | 22.22° C | 55% | 984.4 hPa | 0 mm | - | - | - |
| 1777911312 | 21.67° C | 58% | 984.7 hPa | 0 mm | - | - | - |
| 1777909155 | 20° C | 59% | 985.4 hPa | 0 mm | - | - | - |
| 1777908790 | 19.44° C | 61% | 985.4 hPa | 0 mm | - | - | - |
| 1777905223 | 17.22° C | 63% | 985.7 hPa | 0 mm | - | - | - |
| 1777903777 | 17.78° C | 62% | 986.1 hPa | 0 mm | - | - | - |
| 1777898370 | 13.33° C | 68% | 986.4 hPa | 0 mm | - | - | - |
| 1777894049 | 10° C | 82% | 986.1 hPa | 0 mm | - | - | - |
| 1777892250 | 8.33° C | 83% | 986.1 hPa | 0 mm | - | - | - |
| 1777891872 | 8.33° C | 81% | 985.7 hPa | 0 mm | - | - | - |
| 1777891514 | 8.33° C | 83% | 986.1 hPa | 0 mm | - | - | - |
| 1777888309 | 6.67° C | 87% | 986.1 hPa | 0 mm | - | - | - |
| 1777887571 | 6.67° C | 88% | 986.4 hPa | 0 mm | - | - | - |
| 1777886132 | 7.22° C | 85% | 986.7 hPa | 0 mm | - | - | - |
| 1777885758 | 7.78° C | 84% | 986.7 hPa | 0 mm | - | - | - |
| 1777882552 | 8.33° C | 83% | 987.1 hPa | 0 mm | - | - | - |
| 1777881454 | 8.89° C | 82% | 987.1 hPa | 0 mm | - | - | - |
| 1777878592 | 8.89° C | 82% | 987.8 hPa | 0 mm | - | - | - |
| 1777877513 | 8.89° C | 84% | 987.8 hPa | 0 mm | - | - | - |
| 1777877122 | 8.89° C | 84% | 988.1 hPa | 0 mm | - | - | - |
| 1777873517 | 9.44° C | 83% | 988.4 hPa | 0 mm | - | - | - |
| 1777872802 | 9.44° C | 83% | 988.4 hPa | 0 mm | - | - | - |
| 1777872104 | 8.89° C | 81% | 988.4 hPa | 0 mm | - | - | - |
| 1777870313 | 9.44° C | 80% | 988.8 hPa | 0 mm | - | - | - |
* Rain since midnight (hover to see other rain measurements)
** Current wind speed in m/s (hover to see current wind gust speed)